首页
METAR-TAF:

METAR-TAF

机场 :

比洛克西, 密西西比州, 美国

纬度: 30-25N, 经度: 088-55W, 海拔: 10米

当前天气观测

该预报发布于24分钟前的11:56 UTC
风速6节,风向北转西北
温度 3°C
湿度 75%
气压 1027 hPa
能見度: 16.1公里
多云层高于4500英尺

METAR: KBIX 271156Z AUTO 34006KT 10SM BKN045 03/M01 A3033 RMK AO2 SLP274 T00341012 10067 20031 53009

时间: 06:20 (12:20 UTC)

预报

该预报发布于2小时和20分钟前的10:00 UTC
预报有效从27日的 10点(UTC)到 28日的 16点(UTC)
风速9节,风向北转西北
能见度10公里或以上
少量云层高于3000英尺

TAF: KBIX 271000Z 2710/2816 33009KT 9999 FEW030 QNH3027INS TX10/2722Z TN04/2713Z

超过4000个机场的气象观测和天气预报(METAR&TAF报告)。

可查询的气象台以黄色和红色小点在地图上表示。

将鼠标移到小点上方,可查看气象台名称。

然后点击查看天气观测和预报。

如需切换地图:点击带黑十字的绿色按钮放大地图;点击带横线的绿色按钮缩小地图;或者点击绿色箭头查看邻近地区的地图。


METAR-TAF: